createdAt,value
2022-08-26T00:01:53.027Z,74968.06
2022-08-26T00:04:23.639Z,74971.94
2022-08-26T00:06:50.901Z,74979.63
2022-08-26T00:09:17.729Z,74979.63
2022-08-26T00:11:45.559Z,74979.63
2022-08-26T00:14:13.977Z,74981.56
2022-08-26T00:16:47.864Z,74991.19
2022-08-26T00:19:18.104Z,74998.91
2022-08-26T00:21:46.501Z,74998.91
2022-08-26T00:24:16.261Z,75025.84
2022-08-26T00:26:43.367Z,75022.00
2022-08-26T00:29:10.228Z,75039.34
2022-08-26T00:31:37.916Z,75035.50
2022-08-26T00:34:05.664Z,75029.72
2022-08-26T00:36:32.598Z,75025.84
2022-08-26T00:38:59.400Z,75031.63
2022-08-26T00:41:26.544Z,75027.78
2022-08-26T00:43:54.249Z,75029.72
2022-08-26T00:46:25.689Z,75022.00
2022-08-26T00:48:57.696Z,75025.84
2022-08-26T00:51:30.056Z,75037.41
2022-08-26T00:54:10.735Z,75033.56
2022-08-26T00:56:47.088Z,75037.41
2022-08-26T00:59:17.962Z,75041.28
2022-08-26T01:01:46.060Z,75045.13
2022-08-26T01:04:15.967Z,75045.13
2022-08-26T01:06:44.413Z,75050.91
2022-08-26T01:09:11.920Z,75047.03
2022-08-26T01:11:39.300Z,75047.03
2022-08-26T01:14:07.649Z,75045.13
2022-08-26T01:16:36.076Z,75041.28
2022-08-26T01:19:14.070Z,75048.97
2022-08-26T01:22:10.109Z,75056.69
2022-08-26T01:24:38.558Z,75052.81
2022-08-26T01:27:08.898Z,75058.59
2022-08-26T01:29:39.195Z,75060.53
2022-08-26T01:32:10.013Z,75066.31
2022-08-26T01:34:38.881Z,75072.09
2022-08-26T01:37:15.535Z,75068.25
2022-08-26T01:39:44.909Z,75072.09
2022-08-26T01:42:14.976Z,75074.00
2022-08-26T01:45:06.203Z,75077.88
2022-08-26T01:47:36.590Z,75075.94
2022-08-26T01:50:09.922Z,75091.34
2022-08-26T01:52:41.487Z,75093.28
2022-08-26T01:55:11.396Z,75099.06
2022-08-26T01:57:38.181Z,75102.91
2022-08-26T02:00:09.481Z,75102.91
2022-08-26T02:02:39.861Z,75114.47
2022-08-26T02:05:14.220Z,75122.16
2022-08-26T02:07:42.131Z,75127.94
2022-08-26T02:10:09.493Z,75122.16
2022-08-26T02:12:37.175Z,75118.31
2022-08-26T02:15:08.478Z,75112.53
2022-08-26T02:17:44.209Z,75114.47
2022-08-26T02:20:14.941Z,75116.38
2022-08-26T02:22:43.023Z,75122.16
2022-08-26T02:25:27.684Z,75118.31
2022-08-26T02:27:56.675Z,75120.25
2022-08-26T02:30:29.433Z,75120.25
2022-08-26T02:32:59.561Z,75122.16
2022-08-26T02:35:26.406Z,75122.16
2022-08-26T02:37:53.506Z,75120.25
2022-08-26T02:40:23.805Z,75126.03
2022-08-26T02:42:53.075Z,75129.88
2022-08-26T02:45:23.280Z,75126.03
2022-08-26T02:47:52.471Z,75126.03
2022-08-26T02:50:20.489Z,75127.94
2022-08-26T02:52:48.530Z,75133.72
2022-08-26T02:55:16.090Z,75133.72
2022-08-26T02:57:43.237Z,75131.81
2022-08-26T03:00:14.690Z,75141.44
2022-08-26T03:02:42.234Z,75145.28
2022-08-26T03:05:09.601Z,75149.13
2022-08-26T03:07:36.265Z,75145.28
2022-08-26T03:10:06.881Z,75149.13
2022-08-26T03:12:35.943Z,75145.28
2022-08-26T03:15:03.390Z,75145.28
2022-08-26T03:17:46.945Z,75149.13
2022-08-26T03:20:15.597Z,75147.22
2022-08-26T03:22:44.821Z,75153.00
2022-08-26T03:25:15.149Z,75156.84
2022-08-26T03:27:43.028Z,75156.84
2022-08-26T03:30:30.038Z,75160.69
2022-08-26T03:32:57.176Z,75164.53
2022-08-26T03:35:25.822Z,75170.31
2022-08-26T03:37:53.740Z,75168.41
2022-08-26T03:40:21.586Z,75168.41
2022-08-26T03:42:50.306Z,75170.31
2022-08-26T03:45:19.913Z,75170.31
2022-08-26T03:47:48.063Z,75170.31
2022-08-26T03:50:22.787Z,75174.19
2022-08-26T03:52:51.596Z,75172.25
2022-08-26T03:55:19.487Z,75176.09
2022-08-26T03:57:50.638Z,75183.81
2022-08-26T04:00:18.681Z,75201.16
2022-08-26T04:02:48.825Z,75220.41
2022-08-26T04:05:18.173Z,75226.19
2022-08-26T04:07:45.532Z,75222.34
2022-08-26T04:10:14.559Z,75222.34
2022-08-26T04:12:46.221Z,75210.78
2022-08-26T04:15:16.194Z,75203.06
2022-08-26T04:17:44.617Z,75179.94
2022-08-26T04:20:13.978Z,75174.19
2022-08-26T04:22:43.168Z,75166.47
2022-08-26T04:25:10.622Z,75156.84
2022-08-26T04:27:37.873Z,75137.56
2022-08-26T04:30:07.688Z,75108.69
2022-08-26T04:32:35.685Z,75064.38
2022-08-26T04:35:04.575Z,75022.00
2022-08-26T04:37:31.391Z,74971.94
2022-08-26T04:39:59.528Z,74921.84
2022-08-26T04:42:26.359Z,74840.97
2022-08-26T04:44:53.288Z,74752.34
2022-08-26T04:47:20.122Z,74663.75
2022-08-26T04:49:46.821Z,74590.56
2022-08-26T04:52:13.658Z,74552.06
2022-08-26T04:54:42.019Z,74559.75
2022-08-26T04:57:08.920Z,74592.50
2022-08-26T04:59:39.061Z,74640.66
2022-08-26T05:02:07.033Z,74604.06
2022-08-26T05:04:34.180Z,74475.03
2022-08-26T05:07:02.930Z,74440.34
2022-08-26T05:09:30.397Z,74450.00
2022-08-26T05:11:57.440Z,74473.09
2022-08-26T05:14:24.269Z,74469.25
2022-08-26T05:16:51.324Z,74371.03
2022-08-26T05:19:19.232Z,74267.03
2022-08-26T05:21:48.607Z,74278.59
2022-08-26T05:24:16.124Z,74224.69
2022-08-26T05:26:44.501Z,74259.34
2022-08-26T05:29:11.856Z,74378.72
2022-08-26T05:31:38.804Z,74303.63
2022-08-26T05:34:05.983Z,74220.81
2022-08-26T05:36:35.749Z,74143.78
2022-08-26T05:39:05.781Z,74136.09
2022-08-26T05:41:36.476Z,74101.44
2022-08-26T05:44:10.251Z,73978.19
2022-08-26T05:46:38.655Z,73972.41
2022-08-26T05:49:12.593Z,73955.09
2022-08-26T05:51:45.651Z,73841.47
2022-08-26T05:54:14.160Z,73672.03
2022-08-26T05:56:48.399Z,73577.69
2022-08-26T05:59:16.046Z,73570.00
2022-08-26T06:01:48.090Z,73608.50
2022-08-26T06:04:14.963Z,73469.88
2022-08-26T06:06:42.807Z,73554.59
2022-08-26T06:09:11.239Z,73508.38
2022-08-26T06:11:38.980Z,73300.47
2022-08-26T06:14:07.949Z,73321.63
2022-08-26T06:16:38.719Z,73429.44
2022-08-26T06:19:10.688Z,73315.84
2022-08-26T06:21:40.197Z,73281.22
2022-08-26T06:24:29.116Z,73537.25
2022-08-26T06:27:01.568Z,73789.50
2022-08-26T06:29:30.827Z,73828.00
2022-08-26T06:31:58.543Z,73762.53
2022-08-26T06:34:30.256Z,73652.78
2022-08-26T06:36:59.888Z,73566.16
2022-08-26T06:39:30.710Z,73485.28
2022-08-26T06:42:02.699Z,73620.06
2022-08-26T06:44:33.743Z,73774.09
2022-08-26T06:47:00.834Z,73637.38
2022-08-26T06:49:27.942Z,73600.81
2022-08-26T06:51:59.676Z,73664.34
2022-08-26T06:54:27.911Z,73600.81
2022-08-26T06:56:57.005Z,73562.28
2022-08-26T06:59:24.109Z,73498.75
2022-08-26T07:01:50.948Z,73292.75
2022-08-26T07:04:20.207Z,73250.41
2022-08-26T07:06:52.463Z,73132.97
2022-08-26T07:09:22.343Z,73221.53
2022-08-26T07:11:49.601Z,73096.41
2022-08-26T07:14:21.086Z,73304.31
2022-08-26T07:16:49.471Z,73169.56
2022-08-26T07:19:17.690Z,73119.50
2022-08-26T07:22:00.215Z,73400.56
2022-08-26T07:24:28.604Z,73369.75
2022-08-26T07:27:02.985Z,73419.81
2022-08-26T07:29:32.495Z,73504.53
2022-08-26T07:31:59.826Z,73439.06
2022-08-26T07:34:27.391Z,73277.34
2022-08-26T07:36:55.199Z,73371.69
2022-08-26T07:39:22.725Z,73543.03
2022-08-26T07:41:49.575Z,73481.44
2022-08-26T07:44:16.768Z,73423.69
2022-08-26T07:46:44.262Z,73502.59
2022-08-26T07:49:19.893Z,73358.22
2022-08-26T07:51:46.686Z,73113.72
2022-08-26T07:54:13.522Z,73069.44
2022-08-26T07:56:40.310Z,73389.03
2022-08-26T07:59:13.603Z,73281.22
2022-08-26T08:01:45.007Z,73073.28
2022-08-26T08:04:17.411Z,73054.03
2022-08-26T08:06:45.902Z,73004.00
2022-08-26T08:09:16.156Z,73032.88
2022-08-26T08:11:44.874Z,73138.75
2022-08-26T08:14:13.225Z,73104.09
2022-08-26T08:16:46.029Z,73084.84
2022-08-26T08:19:15.256Z,73140.66
2022-08-26T08:21:43.684Z,73242.69
2022-08-26T08:24:11.269Z,73219.59
2022-08-26T08:26:38.940Z,73100.25
2022-08-26T08:29:06.049Z,73192.66
2022-08-26T08:34:21.522Z,73365.91
2022-08-26T08:36:50.397Z,73392.88
2022-08-26T08:39:20.245Z,73408.28
2022-08-26T08:42:13.678Z,73352.44
2022-08-26T08:44:42.114Z,73294.69
2022-08-26T08:47:25.996Z,73327.41
2022-08-26T08:49:55.804Z,73377.47
2022-08-26T08:52:35.482Z,73425.59
2022-08-26T08:55:11.148Z,73412.13
2022-08-26T08:58:02.042Z,73362.06
2022-08-26T09:00:58.425Z,73260.03
2022-08-26T09:03:54.542Z,73254.25
2022-08-26T09:06:21.753Z,73186.88
2022-08-26T09:08:51.326Z,73165.69
2022-08-26T09:11:19.969Z,73131.03
2022-08-26T09:13:53.647Z,73273.50
2022-08-26T09:16:24.146Z,73335.13
2022-08-26T09:18:56.803Z,73358.22
2022-08-26T09:21:25.361Z,73398.66
2022-08-26T09:23:55.828Z,73296.59
2022-08-26T09:26:39.064Z,73223.44
2022-08-26T09:29:14.439Z,73225.38
2022-08-26T09:31:41.590Z,73211.91
2022-08-26T09:34:17.160Z,73173.41
2022-08-26T09:36:56.391Z,73152.22
2022-08-26T09:39:39.071Z,73144.53
2022-08-26T09:42:14.349Z,73115.66
2022-08-26T09:44:55.799Z,73296.59
2022-08-26T09:47:30.275Z,73319.72
2022-08-26T09:50:23.568Z,73389.03
2022-08-26T09:53:30.304Z,73412.13
2022-08-26T09:56:39.511Z,73321.63
2022-08-26T09:59:11.120Z,73331.25
2022-08-26T10:01:43.731Z,73250.41
2022-08-26T10:04:22.899Z,73267.72
2022-08-26T10:07:03.821Z,73277.34
2022-08-26T10:09:36.543Z,73317.78
2022-08-26T10:12:09.302Z,73377.47
2022-08-26T10:17:30.867Z,73412.13
2022-08-26T10:20:06.581Z,73419.81
2022-08-26T10:22:55.312Z,73375.53
2022-08-26T10:25:28.420Z,73350.50
2022-08-26T10:28:04.841Z,73292.75
2022-08-26T10:30:43.018Z,73246.56
2022-08-26T10:33:15.040Z,73181.09
2022-08-26T10:36:05.922Z,73165.69
2022-08-26T10:38:38.574Z,73129.13
2022-08-26T10:41:17.007Z,73169.56
2022-08-26T10:44:07.350Z,73127.19
2022-08-26T10:46:50.240Z,73073.28
2022-08-26T10:49:18.888Z,73038.66
2022-08-26T10:52:00.935Z,73050.19
2022-08-26T10:54:52.868Z,73084.84
2022-08-26T10:57:27.856Z,73071.38
2022-08-26T11:00:50.205Z,73036.72
2022-08-26T11:03:47.769Z,73192.66
2022-08-26T11:06:19.718Z,73223.44
2022-08-26T11:08:47.625Z,73148.38
2022-08-26T11:11:40.323Z,73109.88
2022-08-26T11:14:29.020Z,73100.25
2022-08-26T11:16:57.625Z,73081.00
2022-08-26T11:19:50.544Z,73038.66
2022-08-26T11:22:32.059Z,73052.13
2022-08-26T11:24:58.904Z,73165.69
2022-08-26T11:27:26.143Z,73150.28
2022-08-26T11:29:57.701Z,73131.03
2022-08-26T11:32:34.367Z,73115.66
2022-08-26T11:35:06.756Z,73171.47
2022-08-26T11:37:40.559Z,73111.78
2022-08-26T11:40:33.574Z,73081.00
2022-08-26T11:43:07.048Z,73113.72
2022-08-26T11:45:39.871Z,73100.25
2022-08-26T11:48:20.143Z,73100.25
2022-08-26T11:51:00.622Z,73065.59
2022-08-26T11:53:28.996Z,73036.72
2022-08-26T11:55:59.558Z,73011.69
2022-08-26T11:58:28.117Z,72990.53
2022-08-26T12:00:59.360Z,73011.69
2022-08-26T12:03:35.979Z,73000.16
2022-08-26T12:06:03.620Z,72994.38
2022-08-26T12:08:34.456Z,73092.53
2022-08-26T12:11:06.364Z,73127.19
2022-08-26T12:13:34.130Z,73059.81
2022-08-26T12:16:01.561Z,73030.94
2022-08-26T12:18:38.495Z,73004.00
2022-08-26T12:21:22.758Z,73015.53
2022-08-26T12:23:56.797Z,73055.97
2022-08-26T12:26:33.135Z,73121.41
2022-08-26T12:29:26.930Z,73073.28
2022-08-26T12:32:13.269Z,73036.72
2022-08-26T12:34:45.416Z,73019.41
2022-08-26T12:37:14.086Z,72996.28
2022-08-26T12:39:44.677Z,72992.44
2022-08-26T12:42:17.379Z,72961.66
2022-08-26T12:45:04.264Z,72965.50
2022-08-26T12:47:44.469Z,72946.25
2022-08-26T12:50:28.413Z,72988.59
2022-08-26T12:53:02.797Z,73000.16
2022-08-26T12:55:46.164Z,72982.81
2022-08-26T12:58:15.592Z,72967.41
2022-08-26T13:00:44.137Z,72953.94
2022-08-26T13:03:40.333Z,73065.59
2022-08-26T13:06:29.602Z,73071.38
2022-08-26T13:09:06.117Z,73077.16
2022-08-26T13:11:55.704Z,73034.78
2022-08-26T13:14:24.686Z,73042.50
2022-08-26T13:16:52.868Z,73084.84
2022-08-26T13:19:25.600Z,73073.28
2022-08-26T13:21:58.520Z,73073.28
2022-08-26T13:24:27.922Z,73025.16
2022-08-26T13:26:54.756Z,72996.28
2022-08-26T13:29:21.625Z,72992.44
2022-08-26T13:31:48.466Z,72988.59
2022-08-26T13:34:19.484Z,72963.56
2022-08-26T13:36:48.041Z,72965.50
2022-08-26T13:39:15.537Z,72942.41
2022-08-26T13:41:43.324Z,72936.63
2022-08-26T13:44:10.806Z,72927.00
2022-08-26T13:46:38.236Z,72980.91
2022-08-26T13:49:05.272Z,73011.69
2022-08-26T13:51:32.706Z,72986.66
2022-08-26T13:53:59.944Z,72961.66
2022-08-26T13:56:29.852Z,72977.03
2022-08-26T13:58:58.353Z,72952.03
2022-08-26T14:01:26.648Z,72977.03
2022-08-26T14:03:53.525Z,72950.09
2022-08-26T14:06:20.985Z,72946.25
2022-08-26T14:08:48.595Z,72950.09
2022-08-26T14:11:15.630Z,72955.88
2022-08-26T14:13:42.430Z,72952.03
2022-08-26T14:16:13.406Z,73004.00
2022-08-26T14:18:45.186Z,72994.38
2022-08-26T14:21:14.262Z,72977.03
2022-08-26T14:23:41.465Z,72973.19
2022-08-26T14:26:10.910Z,72977.03
2022-08-26T14:28:41.893Z,73030.94
2022-08-26T14:31:08.961Z,73027.09
2022-08-26T14:33:38.221Z,73096.41
2022-08-26T14:36:24.405Z,73111.78
2022-08-26T14:38:51.353Z,73113.72
2022-08-26T14:41:19.975Z,73115.66
2022-08-26T14:44:00.041Z,73127.19
2022-08-26T14:46:30.133Z,73115.66
2022-08-26T14:49:02.453Z,73104.09
2022-08-26T14:51:30.382Z,73106.03
2022-08-26T14:54:23.425Z,73107.94
2022-08-26T14:56:55.350Z,73111.78
2022-08-26T14:59:32.992Z,73109.88
2022-08-26T15:02:00.850Z,73102.16
2022-08-26T15:04:28.538Z,73100.25
2022-08-26T15:06:58.753Z,73113.72
2022-08-26T15:09:26.967Z,73121.41
2022-08-26T15:11:54.313Z,73119.50
2022-08-26T15:14:21.933Z,73138.75
2022-08-26T15:16:51.025Z,73123.34
2022-08-26T15:19:18.874Z,73129.13
2022-08-26T15:21:47.134Z,73127.19
2022-08-26T15:24:17.102Z,73131.03
2022-08-26T15:26:44.719Z,73152.22
2022-08-26T15:29:11.666Z,73188.81
2022-08-26T15:31:38.665Z,73188.81
2022-08-26T15:34:14.563Z,73167.63
2022-08-26T15:36:44.899Z,73173.41
2022-08-26T15:39:11.978Z,73165.69
2022-08-26T15:41:39.007Z,73154.16
2022-08-26T15:44:07.298Z,73150.28
2022-08-26T15:46:35.609Z,73156.06
2022-08-26T15:49:04.547Z,73165.69
2022-08-26T15:51:45.286Z,73173.41
2022-08-26T15:54:14.145Z,73173.41
2022-08-26T15:56:40.936Z,73179.19
2022-08-26T15:59:11.400Z,73175.31
2022-08-26T16:01:38.331Z,73184.94
2022-08-26T16:04:05.352Z,73175.31
2022-08-26T16:06:35.267Z,73184.94
2022-08-26T16:09:02.465Z,73177.25
2022-08-26T16:11:29.562Z,73188.81
2022-08-26T16:13:56.336Z,73196.50
2022-08-26T16:16:23.276Z,73196.50
2022-08-26T16:18:50.091Z,73200.34
2022-08-26T16:21:20.205Z,73194.56
2022-08-26T16:23:47.727Z,73196.50
2022-08-26T16:26:18.454Z,73219.59
2022-08-26T16:28:45.492Z,73225.38
2022-08-26T16:31:13.143Z,73227.31
2022-08-26T16:33:40.772Z,73227.31
2022-08-26T16:36:08.776Z,73221.53
2022-08-26T16:38:37.607Z,73229.22
2022-08-26T16:41:04.952Z,73238.84
2022-08-26T16:43:31.860Z,73240.78
2022-08-26T16:45:58.865Z,73242.69
2022-08-26T16:48:26.828Z,73246.56
2022-08-26T16:50:55.494Z,73242.69
2022-08-26T16:53:22.876Z,73250.41
2022-08-26T16:55:50.353Z,73246.56
2022-08-26T16:58:17.883Z,73261.97
2022-08-26T17:00:45.341Z,73265.81
2022-08-26T17:03:12.617Z,73269.66
2022-08-26T17:05:40.315Z,73277.34
2022-08-26T17:08:07.351Z,73300.47
2022-08-26T17:10:34.534Z,73310.09
2022-08-26T17:13:01.396Z,73319.72
2022-08-26T17:15:28.645Z,73340.88
2022-08-26T17:17:56.765Z,73356.28
2022-08-26T17:20:24.840Z,73371.69
2022-08-26T17:22:53.897Z,73389.03
2022-08-26T17:25:25.807Z,73410.19
2022-08-26T17:27:52.943Z,73417.91
2022-08-26T17:30:21.077Z,73442.94
2022-08-26T17:32:48.411Z,73458.31
2022-08-26T17:35:16.068Z,73485.28
2022-08-26T17:37:43.536Z,73514.16
2022-08-26T17:40:13.933Z,73527.63
2022-08-26T17:42:41.322Z,73558.44
2022-08-26T17:45:09.909Z,73579.63
2022-08-26T17:47:37.477Z,73595.03
2022-08-26T17:50:06.295Z,73621.97
2022-08-26T17:52:33.036Z,73643.16
2022-08-26T17:54:59.771Z,73658.56
2022-08-26T17:57:27.145Z,73681.66
2022-08-26T17:59:54.468Z,73697.06
2022-08-26T18:02:21.536Z,73712.47
2022-08-26T18:04:48.597Z,73731.72
2022-08-26T18:07:16.331Z,73756.75
2022-08-26T18:09:43.349Z,73774.09
2022-08-26T18:12:11.017Z,73789.50
2022-08-26T18:14:38.059Z,73797.19
2022-08-26T18:17:05.066Z,73808.75
2022-08-26T18:19:31.928Z,73820.28
2022-08-26T18:21:58.979Z,73828.00
2022-08-26T18:24:28.637Z,73843.41
2022-08-26T18:26:55.435Z,73851.09
2022-08-26T18:29:22.288Z,73860.72
2022-08-26T18:31:49.579Z,73878.06
2022-08-26T18:34:16.964Z,73889.63
2022-08-26T18:36:44.169Z,73901.16
2022-08-26T18:39:12.618Z,73912.72
2022-08-26T18:41:44.212Z,73920.44
2022-08-26T18:44:13.625Z,73924.28
2022-08-26T18:46:41.569Z,73928.13
2022-08-26T18:49:10.824Z,73933.91
2022-08-26T18:51:38.159Z,73939.69
2022-08-26T18:54:06.973Z,73949.31
2022-08-26T18:56:35.928Z,73958.94
2022-08-26T18:59:04.907Z,73962.78
2022-08-26T19:01:32.738Z,73974.34
2022-08-26T19:04:01.992Z,73993.59
2022-08-26T19:06:31.638Z,73999.38
2022-08-26T19:08:59.122Z,73997.44
2022-08-26T19:11:32.535Z,74005.16
2022-08-26T19:14:09.158Z,74024.41
2022-08-26T19:16:37.462Z,74035.97
2022-08-26T19:19:05.269Z,74043.66
2022-08-26T19:21:35.750Z,74059.06
2022-08-26T19:24:12.642Z,74059.06
2022-08-26T19:26:40.042Z,74070.63
2022-08-26T19:29:07.412Z,74082.16
2022-08-26T19:31:35.143Z,74086.03
2022-08-26T19:34:02.390Z,74086.03
2022-08-26T19:36:29.745Z,74086.03
2022-08-26T19:38:57.388Z,74089.88
2022-08-26T19:41:37.183Z,74089.88
2022-08-26T19:44:37.347Z,74093.72
2022-08-26T19:47:06.550Z,74097.59
2022-08-26T19:49:43.348Z,74105.28
2022-08-26T19:52:12.070Z,74107.22
2022-08-26T19:54:40.042Z,74112.97
2022-08-26T19:57:07.259Z,74120.69
2022-08-26T19:59:36.359Z,74128.38
2022-08-26T20:02:10.913Z,74128.38
2022-08-26T20:04:39.390Z,74138.00
2022-08-26T20:07:06.462Z,74155.34
2022-08-26T20:09:34.227Z,74161.13
2022-08-26T20:12:02.702Z,74170.75
2022-08-26T20:14:30.707Z,74174.59
2022-08-26T20:16:57.965Z,74178.47
2022-08-26T20:19:43.534Z,74182.31
2022-08-26T20:22:11.113Z,74186.16
2022-08-26T20:24:38.122Z,74182.31
2022-08-26T20:27:07.970Z,74195.78
2022-08-26T20:29:36.060Z,74201.56
2022-08-26T20:32:05.951Z,74222.75
2022-08-26T20:34:33.843Z,74236.22
2022-08-26T20:37:01.212Z,74236.22
2022-08-26T20:39:29.621Z,74240.06
2022-08-26T20:41:57.812Z,74243.94
2022-08-26T20:44:25.185Z,74249.72
2022-08-26T20:46:51.957Z,74259.34
2022-08-26T20:49:18.722Z,74270.88
2022-08-26T20:51:48.247Z,74268.97
2022-08-26T20:54:15.427Z,74268.97
2022-08-26T20:56:42.227Z,74268.97
2022-08-26T20:59:09.923Z,74257.41
2022-08-26T21:01:42.419Z,74270.88
2022-08-26T21:04:17.035Z,74284.38
2022-08-26T21:06:49.894Z,74290.16
2022-08-26T21:09:21.424Z,74290.16
2022-08-26T21:11:48.603Z,74299.78
2022-08-26T21:14:16.843Z,74301.69
2022-08-26T21:16:44.776Z,74324.81
2022-08-26T21:19:14.564Z,74324.81
2022-08-26T21:21:42.080Z,74336.38
2022-08-26T21:24:09.110Z,74338.28
2022-08-26T21:26:36.160Z,74347.91
2022-08-26T21:29:04.045Z,74347.91
2022-08-26T21:31:32.297Z,74357.56
2022-08-26T21:34:00.026Z,74361.41
2022-08-26T21:36:27.270Z,74355.63
2022-08-26T21:38:58.504Z,74359.47
2022-08-26T21:41:26.805Z,74371.03
2022-08-26T21:43:59.199Z,74378.72
2022-08-26T21:46:29.323Z,74378.72
2022-08-26T21:49:00.441Z,74388.38
2022-08-26T21:51:31.113Z,74394.13
2022-08-26T21:53:59.973Z,74390.28
2022-08-26T21:56:29.910Z,74398.00
2022-08-26T21:58:57.732Z,74394.13
2022-08-26T22:01:27.849Z,74396.06
2022-08-26T22:03:55.699Z,74401.84
2022-08-26T22:06:25.273Z,74405.69
2022-08-26T22:08:52.923Z,74407.63
2022-08-26T22:11:20.716Z,74401.84
2022-08-26T22:13:48.680Z,74398.00
2022-08-26T22:16:16.467Z,74396.06
2022-08-26T22:18:45.109Z,74399.91
2022-08-26T22:21:16.836Z,74401.84
2022-08-26T22:23:45.249Z,74409.53
2022-08-26T22:26:14.605Z,74407.63
2022-08-26T22:28:42.459Z,74407.63
2022-08-26T22:31:12.459Z,74401.84
2022-08-26T22:33:43.043Z,74398.00
2022-08-26T22:36:23.392Z,74398.00
2022-08-26T22:38:51.376Z,74390.28
2022-08-26T22:41:18.968Z,74382.59
2022-08-26T22:43:46.072Z,74351.78
2022-08-26T22:46:22.792Z,74332.50
2022-08-26T22:48:51.947Z,74332.50
2022-08-26T22:51:21.443Z,74320.97
2022-08-26T22:53:48.261Z,74313.25
2022-08-26T22:56:15.403Z,74326.75
2022-08-26T22:58:42.477Z,74340.22
2022-08-26T23:01:09.407Z,74347.91
2022-08-26T23:03:36.279Z,74349.84
2022-08-26T23:06:06.526Z,74344.06
2022-08-26T23:08:33.837Z,74342.16
2022-08-26T23:11:01.396Z,74347.91
2022-08-26T23:13:28.358Z,74346.00
2022-08-26T23:16:09.106Z,74347.91
2022-08-26T23:18:35.948Z,74357.56
2022-08-26T23:21:02.953Z,74363.31
2022-08-26T23:23:29.694Z,74372.94
2022-08-26T23:25:56.939Z,74372.94
2022-08-26T23:28:24.160Z,74378.72
2022-08-26T23:30:50.919Z,74390.28
2022-08-26T23:33:17.739Z,74392.22
2022-08-26T23:35:44.507Z,74401.84
2022-08-26T23:38:14.116Z,74413.41
2022-08-26T23:40:41.551Z,74417.25
2022-08-26T23:43:11.496Z,74430.72
2022-08-26T23:45:38.770Z,74428.81
2022-08-26T23:48:06.740Z,74438.44
2022-08-26T23:50:52.595Z,74446.13
2022-08-26T23:53:22.360Z,74450.00
2022-08-26T23:55:51.895Z,74459.63
2022-08-26T23:58:20.510Z,74459.63
